sensor_id;sensor_type;location;lat;lon;timestamp;pressure;altitude;pressure_sealevel;temperature;humidity
69528;BME280;57136;51.986;4.468;2022-09-16T00:00:16;101216.25;;;13.97;84.96
69528;BME280;57136;51.986;4.468;2022-09-16T00:02:42;101207.47;;;14.07;82.13
69528;BME280;57136;51.986;4.468;2022-09-16T00:05:07;101205.63;;;14.30;81.89
69528;BME280;57136;51.986;4.468;2022-09-16T00:07:33;101202.94;;;14.42;81.39
69528;BME280;57136;51.986;4.468;2022-09-16T00:09:59;101211.59;;;14.57;81.10
69528;BME280;57136;51.986;4.468;2022-09-16T00:12:25;101206.28;;;14.64;79.57
69528;BME280;57136;51.986;4.468;2022-09-16T00:14:54;101201.03;;;14.71;79.66
69528;BME280;57136;51.986;4.468;2022-09-16T00:17:20;101208.00;;;14.76;78.90
69528;BME280;57136;51.986;4.468;2022-09-16T00:19:46;101203.53;;;14.88;78.82
69528;BME280;57136;51.986;4.468;2022-09-16T00:22:12;101211.44;;;14.83;78.13
69528;BME280;57136;51.986;4.468;2022-09-16T00:24:37;101214.13;;;14.74;77.29
69528;BME280;57136;51.986;4.468;2022-09-16T00:27:03;101216.84;;;14.58;78.93
69528;BME280;57136;51.986;4.468;2022-09-16T00:29:28;101207.06;;;14.83;78.91
69528;BME280;57136;51.986;4.468;2022-09-16T00:31:54;101214.84;;;14.94;76.96
69528;BME280;57136;51.986;4.468;2022-09-16T00:34:19;101213.91;;;15.02;76.35
69528;BME280;57136;51.986;4.468;2022-09-16T00:36:44;101207.03;;;14.87;74.55
69528;BME280;57136;51.986;4.468;2022-09-16T00:39:10;101215.66;;;15.06;73.64
69528;BME280;57136;51.986;4.468;2022-09-16T00:41:35;101212.19;;;15.02;74.70
69528;BME280;57136;51.986;4.468;2022-09-16T00:44:04;101211.34;;;14.92;77.12
69528;BME280;57136;51.986;4.468;2022-09-16T00:46:40;101202.59;;;14.93;77.66
69528;BME280;57136;51.986;4.468;2022-09-16T00:49:22;101209.66;;;14.90;78.04
69528;BME280;57136;51.986;4.468;2022-09-16T00:51:51;101200.06;;;14.86;78.79
69528;BME280;57136;51.986;4.468;2022-09-16T00:54:19;101205.38;;;14.76;80.40
69528;BME280;57136;51.986;4.468;2022-09-16T00:56:47;101208.88;;;14.74;80.93
69528;BME280;57136;51.986;4.468;2022-09-16T00:59:22;101207.16;;;14.68;81.92
69528;BME280;57136;51.986;4.468;2022-09-16T01:01:50;101207.16;;;14.65;81.97
69528;BME280;57136;51.986;4.468;2022-09-16T01:04:20;101206.28;;;14.64;81.55
69528;BME280;57136;51.986;4.468;2022-09-16T01:06:47;101206.31;;;14.60;82.17
69528;BME280;57136;51.986;4.468;2022-09-16T01:09:13;101214.16;;;14.63;81.50
69528;BME280;57136;51.986;4.468;2022-09-16T01:11:38;101208.91;;;14.66;81.45
69528;BME280;57136;51.986;4.468;2022-09-16T01:14:04;101216.78;;;14.66;81.27
69528;BME280;57136;51.986;4.468;2022-09-16T01:17:00;101213.25;;;14.72;80.53
69528;BME280;57136;51.986;4.468;2022-09-16T01:22:57;101222.94;;;14.59;83.27
69528;BME280;57136;51.986;4.468;2022-09-16T01:32:03;101247.75;;;13.57;96.13
69528;BME280;57136;51.986;4.468;2022-09-16T01:34:49;101238.16;;;13.34;97.21
69528;BME280;57136;51.986;4.468;2022-09-16T01:45:35;101231.19;;;12.86;99.82
69528;BME280;57136;51.986;4.468;2022-09-16T01:51:01;101235.50;;;12.83;98.67
69528;BME280;57136;51.986;4.468;2022-09-16T01:53:51;101232.91;;;12.89;98.52
69528;BME280;57136;51.986;4.468;2022-09-16T01:56:32;101232.94;;;12.91;99.13
69528;BME280;57136;51.986;4.468;2022-09-16T01:59:18;101236.41;;;12.99;99.56
69528;BME280;57136;51.986;4.468;2022-09-16T02:02:07;101233.81;;;13.07;99.40
69528;BME280;57136;51.986;4.468;2022-09-16T02:04:39;101228.59;;;13.10;99.89
69528;BME280;57136;51.986;4.468;2022-09-16T02:07:08;101235.56;;;13.15;100.00
69528;BME280;57136;51.986;4.468;2022-09-16T02:09:40;101228.59;;;13.14;100.00
69528;BME280;57136;51.986;4.468;2022-09-16T02:12:12;101230.31;;;13.20;100.00
69528;BME280;57136;51.986;4.468;2022-09-16T02:14:41;101226.81;;;13.18;100.00
69528;BME280;57136;51.986;4.468;2022-09-16T02:17:09;101226.84;;;13.06;100.00
69528;BME280;57136;51.986;4.468;2022-09-16T02:19:38;101224.22;;;12.92;100.00
69528;BME280;57136;51.986;4.468;2022-09-16T02:22:28;101234.66;;;12.85;100.00
69528;BME280;57136;51.986;4.468;2022-09-16T02:24:58;101235.53;;;12.87;100.00
69528;BME280;57136;51.986;4.468;2022-09-16T02:27:26;101239.03;;;12.93;100.00
69528;BME280;57136;51.986;4.468;2022-09-16T02:29:55;101253.84;;;13.00;100.00
69528;BME280;57136;51.986;4.468;2022-09-16T02:32:22;101259.09;;;12.91;100.00
69528;BME280;57136;51.986;4.468;2022-09-16T02:34:52;101264.34;;;12.94;100.00
69528;BME280;57136;51.986;4.468;2022-09-16T02:37:27;101252.97;;;12.88;100.00
69528;BME280;57136;51.986;4.468;2022-09-16T02:39:57;101245.09;;;12.84;100.00
69528;BME280;57136;51.986;4.468;2022-09-16T02:42:26;101239.00;;;12.68;100.00
69528;BME280;57136;51.986;4.468;2022-09-16T02:44:52;101231.13;;;12.51;100.00
69528;BME280;57136;51.986;4.468;2022-09-16T02:47:29;101225.88;;;12.40;100.00
69528;BME280;57136;51.986;4.468;2022-09-16T02:50:15;101222.34;;;12.32;100.00
69528;BME280;57136;51.986;4.468;2022-09-16T02:57:38;101237.09;;;12.20;100.00
69528;BME280;57136;51.986;4.468;2022-09-16T03:00:05;101232.78;;;12.24;100.00
69528;BME280;57136;51.986;4.468;2022-09-16T03:02:34;101238.00;;;12.28;100.00
69528;BME280;57136;51.986;4.468;2022-09-16T03:05:00;101228.44;;;12.26;100.00
69528;BME280;57136;51.986;4.468;2022-09-16T03:07:25;101230.13;;;12.22;100.00
69528;BME280;57136;51.986;4.468;2022-09-16T03:09:51;101217.97;;;12.26;100.00
69528;BME280;57136;51.986;4.468;2022-09-16T03:12:39;101217.94;;;12.20;100.00
69528;BME280;57136;51.986;4.468;2022-09-16T03:16:11;101223.09;;;12.07;100.00
69528;BME280;57136;51.986;4.468;2022-09-16T03:18:23;101223.97;;;12.05;100.00
69528;BME280;57136;51.986;4.468;2022-09-16T03:20:59;101223.97;;;12.03;100.00
69528;BME280;57136;51.986;4.468;2022-09-16T03:23:48;101225.66;;;11.98;100.00
69528;BME280;57136;51.986;4.468;2022-09-16T03:31:44;101231.03;;;12.23;100.00
69528;BME280;57136;51.986;4.468;2022-09-16T03:36:50;101218.88;;;12.45;100.00
69528;BME280;57136;51.986;4.468;2022-09-16T03:39:17;101221.53;;;12.56;100.00
69528;BME280;57136;51.986;4.468;2022-09-16T03:41:43;101221.53;;;12.62;100.00
69528;BME280;57136;51.986;4.468;2022-09-16T03:44:09;101209.34;;;12.63;100.00
69528;BME280;57136;51.986;4.468;2022-09-16T03:46:34;101214.56;;;12.64;100.00
69528;BME280;57136;51.986;4.468;2022-09-16T03:48:59;101223.31;;;12.65;100.00
69528;BME280;57136;51.986;4.468;2022-09-16T03:51:25;101228.50;;;12.60;100.00
69528;BME280;57136;51.986;4.468;2022-09-16T03:53:51;101224.16;;;12.54;100.00
69528;BME280;57136;51.986;4.468;2022-09-16T03:56:17;101227.63;;;12.46;100.00
69528;BME280;57136;51.986;4.468;2022-09-16T03:58:42;101231.97;;;12.51;100.00
69528;BME280;57136;51.986;4.468;2022-09-16T04:01:08;101237.16;;;12.42;100.00
69528;BME280;57136;51.986;4.468;2022-09-16T04:03:33;101227.56;;;12.32;100.00
69528;BME280;57136;51.986;4.468;2022-09-16T04:06:01;101230.16;;;12.27;100.00
69528;BME280;57136;51.986;4.468;2022-09-16T04:08:27;101221.44;;;12.31;100.00
69528;BME280;57136;51.986;4.468;2022-09-16T04:11:00;101224.97;;;12.39;100.00
69528;BME280;57136;51.986;4.468;2022-09-16T04:13:29;101211.91;;;12.41;100.00
69528;BME280;57136;51.986;4.468;2022-09-16T04:15:54;101211.03;;;12.37;100.00
69528;BME280;57136;51.986;4.468;2022-09-16T04:18:20;101204.94;;;12.34;100.00
69528;BME280;57136;51.986;4.468;2022-09-16T04:20:45;101199.66;;;12.24;100.00
69528;BME280;57136;51.986;4.468;2022-09-16T04:23:11;101197.91;;;12.16;100.00
69528;BME280;57136;51.986;4.468;2022-09-16T04:25:36;101201.34;;;12.07;100.00
69528;BME280;57136;51.986;4.468;2022-09-16T04:28:02;101211.72;;;11.97;100.00
69528;BME280;57136;51.986;4.468;2022-09-16T04:30:27;101202.09;;;11.86;100.00
69528;BME280;57136;51.986;4.468;2022-09-16T04:32:54;101207.28;;;11.81;100.00
69528;BME280;57136;51.986;4.468;2022-09-16T04:35:20;101193.34;;;11.79;100.00
69528;BME280;57136;51.986;4.468;2022-09-16T04:37:45;101200.34;;;11.89;100.00
69528;BME280;57136;51.986;4.468;2022-09-16T04:40:11;101200.47;;;12.06;100.00
69528;BME280;57136;51.986;4.468;2022-09-16T04:42:36;101205.75;;;12.23;100.00
69528;BME280;57136;51.986;4.468;2022-09-16T04:45:02;101207.50;;;12.27;100.00
69528;BME280;57136;51.986;4.468;2022-09-16T04:47:27;101205.78;;;12.26;100.00
69528;BME280;57136;51.986;4.468;2022-09-16T04:49:53;101205.78;;;12.34;100.00
69528;BME280;57136;51.986;4.468;2022-09-16T04:52:18;101208.41;;;12.34;100.00
69528;BME280;57136;51.986;4.468;2022-09-16T04:54:44;101205.81;;;12.39;100.00
69528;BME280;57136;51.986;4.468;2022-09-16T04:57:09;101200.56;;;12.33;100.00
69528;BME280;57136;51.986;4.468;2022-09-16T04:59:34;101198.81;;;12.32;100.00
69528;BME280;57136;51.986;4.468;2022-09-16T05:01:59;101197.91;;;12.20;100.00
69528;BME280;57136;51.986;4.468;2022-09-16T05:04:25;101203.94;;;12.04;100.00
69528;BME280;57136;51.986;4.468;2022-09-16T05:06:50;101203.84;;;11.91;100.00
69528;BME280;57136;51.986;4.468;2022-09-16T05:09:16;101202.09;;;11.84;100.00
69528;BME280;57136;51.986;4.468;2022-09-16T05:11:41;101211.69;;;11.91;100.00
69528;BME280;57136;51.986;4.468;2022-09-16T05:14:11;101207.28;;;11.82;100.00
69528;BME280;57136;51.986;4.468;2022-09-16T05:16:37;101209.03;;;11.88;100.00
69528;BME280;57136;51.986;4.468;2022-09-16T05:19:03;101207.31;;;11.90;100.00
69528;BME280;57136;51.986;4.468;2022-09-16T05:21:30;101208.28;;;12.02;100.00
69528;BME280;57136;51.986;4.468;2022-09-16T05:23:59;101205.66;;;12.00;100.00
69528;BME280;57136;51.986;4.468;2022-09-16T05:26:26;101211.69;;;11.91;100.00
69528;BME280;57136;51.986;4.468;2022-09-16T05:28:52;101206.47;;;11.90;100.00
69528;BME280;57136;51.986;4.468;2022-09-16T05:31:20;101210.84;;;11.97;100.00
69528;BME280;57136;51.986;4.468;2022-09-16T05:36:21;101215.28;;;12.06;100.00
69528;BME280;57136;51.986;4.468;2022-09-16T05:38:46;101217.03;;;12.16;100.00
69528;BME280;57136;51.986;4.468;2022-09-16T05:41:12;101222.31;;;12.28;100.00
69528;BME280;57136;51.986;4.468;2022-09-16T05:43:37;101239.81;;;12.47;100.00
69528;BME280;57136;51.986;4.468;2022-09-16T05:46:04;101232.81;;;12.35;100.00
69528;BME280;57136;51.986;4.468;2022-09-16T05:48:30;101234.50;;;12.26;100.00
69528;BME280;57136;51.986;4.468;2022-09-16T05:50:58;101227.56;;;12.32;100.00
69528;BME280;57136;51.986;4.468;2022-09-16T05:53:25;101225.81;;;12.35;100.00
69528;BME280;57136;51.986;4.468;2022-09-16T05:55:58;101225.84;;;12.37;100.00
69528;BME280;57136;51.986;4.468;2022-09-16T05:58:24;101217.97;;;12.29;100.00
69528;BME280;57136;51.986;4.468;2022-09-16T06:00:51;101237.13;;;12.29;100.00
69528;BME280;57136;51.986;4.468;2022-09-16T06:03:17;101256.31;;;12.28;100.00
69528;BME280;57136;51.986;4.468;2022-09-16T06:05:42;101251.06;;;12.25;100.00
69528;BME280;57136;51.986;4.468;2022-09-16T06:08:07;101244.03;;;12.13;100.00
69528;BME280;57136;51.986;4.468;2022-09-16T06:10:40;101266.72;;;12.21;100.00
69528;BME280;57136;51.986;4.468;2022-09-16T06:13:05;101251.88;;;12.09;100.00
69528;BME280;57136;51.986;4.468;2022-09-16T06:15:30;101250.94;;;12.02;100.00
69528;BME280;57136;51.986;4.468;2022-09-16T06:17:56;101250.88;;;11.94;100.00
69528;BME280;57136;51.986;4.468;2022-09-16T06:20:22;101250.88;;;11.93;99.77
69528;BME280;57136;51.986;4.468;2022-09-16T06:22:48;101250.81;;;11.83;100.00
69528;BME280;57136;51.986;4.468;2022-09-16T06:25:13;101253.44;;;11.87;99.68
69528;BME280;57136;51.986;4.468;2022-09-16T06:27:38;101256.03;;;11.79;100.00
69528;BME280;57136;51.986;4.468;2022-09-16T06:30:04;101251.69;;;11.81;100.00
69528;BME280;57136;51.986;4.468;2022-09-16T06:32:30;101255.22;;;11.91;100.00
69528;BME280;57136;51.986;4.468;2022-09-16T06:34:56;101250.88;;;11.90;100.00
69528;BME280;57136;51.986;4.468;2022-09-16T06:37:21;101256.06;;;11.88;100.00
69528;BME280;57136;51.986;4.468;2022-09-16T06:39:46;101258.69;;;11.90;100.00
69528;BME280;57136;51.986;4.468;2022-09-16T06:42:11;101253.56;;;12.05;100.00
69528;BME280;57136;51.986;4.468;2022-09-16T06:44:37;101244.97;;;12.26;100.00
69528;BME280;57136;51.986;4.468;2022-09-16T06:47:02;101241.53;;;12.40;100.00
69528;BME280;57136;51.986;4.468;2022-09-16T06:49:27;101244.22;;;12.65;100.00
69528;BME280;57136;51.986;4.468;2022-09-16T06:51:53;101245.09;;;12.71;100.00
69528;BME280;57136;51.986;4.468;2022-09-16T06:54:18;101244.28;;;12.93;100.00
69528;BME280;57136;51.986;4.468;2022-09-16T06:56:43;101242.50;;;12.90;100.00
69528;BME280;57136;51.986;4.468;2022-09-16T06:59:09;101234.66;;;12.88;100.00
69528;BME280;57136;51.986;4.468;2022-09-16T07:01:35;101230.31;;;12.95;100.00
69528;BME280;57136;51.986;4.468;2022-09-16T07:04:04;101224.19;;;12.98;100.00
69528;BME280;57136;51.986;4.468;2022-09-16T07:06:30;101221.59;;;13.10;100.00
69528;BME280;57136;51.986;4.468;2022-09-16T07:08:56;101231.22;;;13.42;100.00
69528;BME280;57136;51.986;4.468;2022-09-16T07:11:22;101232.84;;;13.90;99.48
69528;BME280;57136;51.986;4.468;2022-09-16T07:13:49;101228.28;;;14.40;96.09
69528;BME280;57136;51.986;4.468;2022-09-16T07:16:19;101246.38;;;14.93;93.73
69528;BME280;57136;51.986;4.468;2022-09-16T07:18:45;101280.41;;;15.04;89.25
69528;BME280;57136;51.986;4.468;2022-09-16T07:21:17;101274.75;;;13.98;93.27
69528;BME280;57136;51.986;4.468;2022-09-16T07:23:43;101272.22;;;13.42;95.32
69528;BME280;57136;51.986;4.468;2022-09-16T07:26:12;101260.81;;;12.78;96.98
69528;BME280;57136;51.986;4.468;2022-09-16T07:28:39;101252.94;;;12.68;98.01
69528;BME280;57136;51.986;4.468;2022-09-16T07:31:12;101264.28;;;12.66;98.31
69528;BME280;57136;51.986;4.468;2022-09-16T07:33:39;101253.78;;;12.61;98.79
69528;BME280;57136;51.986;4.468;2022-09-16T07:36:06;101253.78;;;12.56;100.00
69528;BME280;57136;51.986;4.468;2022-09-16T07:38:33;101264.22;;;12.55;99.52
69528;BME280;57136;51.986;4.468;2022-09-16T07:41:17;101264.25;;;12.61;100.00
69528;BME280;57136;51.986;4.468;2022-09-16T07:43:43;101260.78;;;12.61;99.87
69528;BME280;57136;51.986;4.468;2022-09-16T07:46:11;101262.53;;;12.77;100.00
69528;BME280;57136;51.986;4.468;2022-09-16T07:48:37;101271.31;;;13.10;100.00
69528;BME280;57136;51.986;4.468;2022-09-16T07:51:07;101264.34;;;13.31;100.00
69528;BME280;57136;51.986;4.468;2022-09-16T07:53:34;101261.75;;;13.54;100.00
69528;BME280;57136;51.986;4.468;2022-09-16T07:56:17;101263.47;;;13.68;98.47
69528;BME280;57136;51.986;4.468;2022-09-16T07:58:44;101266.94;;;13.73;99.76
69528;BME280;57136;51.986;4.468;2022-09-16T08:01:10;101262.59;;;13.64;100.00
69528;BME280;57136;51.986;4.468;2022-09-16T08:03:37;101265.22;;;13.76;100.00
69528;BME280;57136;51.986;4.468;2022-09-16T08:06:06;101265.16;;;13.89;100.00
69528;BME280;57136;51.986;4.468;2022-09-16T08:08:32;101266.84;;;14.16;100.00
69528;BME280;57136;51.986;4.468;2022-09-16T08:10:59;101264.97;;;14.45;99.79
69528;BME280;57136;51.986;4.468;2022-09-16T08:13:26;101282.41;;;14.58;98.40
69528;BME280;57136;51.986;4.468;2022-09-16T08:15:53;101285.00;;;14.61;96.49
69528;BME280;57136;51.986;4.468;2022-09-16T08:18:19;101306.03;;;14.46;96.07
69528;BME280;57136;51.986;4.468;2022-09-16T08:20:44;101312.31;;;14.04;95.45
69528;BME280;57136;51.986;4.468;2022-09-16T08:23:10;101307.09;;;13.83;96.61
69528;BME280;57136;51.986;4.468;2022-09-16T08:25:35;101305.38;;;13.57;98.62
69528;BME280;57136;51.986;4.468;2022-09-16T08:28:02;101307.13;;;13.42;99.09
69528;BME280;57136;51.986;4.468;2022-09-16T08:30:27;101308.84;;;13.23;100.00
69528;BME280;57136;51.986;4.468;2022-09-16T08:32:58;101308.81;;;13.17;100.00
69528;BME280;57136;51.986;4.468;2022-09-16T08:35:24;101312.34;;;13.28;100.00
69528;BME280;57136;51.986;4.468;2022-09-16T08:37:51;101310.56;;;13.40;100.00
69528;BME280;57136;51.986;4.468;2022-09-16T08:40:19;101319.34;;;13.57;99.95
69528;BME280;57136;51.986;4.468;2022-09-16T08:42:58;101312.38;;;13.73;100.00
69528;BME280;57136;51.986;4.468;2022-09-16T08:45:41;101329.81;;;13.73;97.68
69528;BME280;57136;51.986;4.468;2022-09-16T08:48:18;101341.16;;;13.95;99.29
69528;BME280;57136;51.986;4.468;2022-09-16T08:50:47;101342.00;;;14.11;97.57
69528;BME280;57136;51.986;4.468;2022-09-16T08:53:23;101349.78;;;14.37;94.80
69528;BME280;57136;51.986;4.468;2022-09-16T08:55:55;101359.31;;;14.71;91.67
69528;BME280;57136;51.986;4.468;2022-09-16T08:58:32;101346.34;;;14.11;90.34
69528;BME280;57136;51.986;4.468;2022-09-16T09:01:14;101335.94;;;13.52;92.00
69528;BME280;57136;51.986;4.468;2022-09-16T09:03:42;101340.22;;;13.14;94.60
69528;BME280;57136;51.986;4.468;2022-09-16T09:06:30;101335.88;;;13.11;96.46
69528;BME280;57136;51.986;4.468;2022-09-16T09:11:45;101338.50;;;13.21;94.86
69528;BME280;57136;51.986;4.468;2022-09-16T09:17:23;101348.16;;;13.45;95.89
69528;BME280;57136;51.986;4.468;2022-09-16T09:25:33;101353.38;;;13.99;94.07
69528;BME280;57136;51.986;4.468;2022-09-16T09:36:58;101373.41;;;13.32;92.76
69528;BME280;57136;51.986;4.468;2022-09-16T09:42:28;101368.97;;;12.91;96.36
69528;BME280;57136;51.986;4.468;2022-09-16T09:45:01;101352.28;;;12.65;97.63
69528;BME280;57136;51.986;4.468;2022-09-16T09:50:22;101357.59;;;12.82;100.00
69528;BME280;57136;51.986;4.468;2022-09-16T09:55:34;101347.28;;;13.43;100.00
69528;BME280;57136;51.986;4.468;2022-09-16T10:00:43;101334.00;;;14.47;100.00
69528;BME280;57136;51.986;4.468;2022-09-16T10:03:14;101328.53;;;15.04;98.73
69528;BME280;57136;51.986;4.468;2022-09-16T10:05:42;101336.84;;;15.61;95.60
69528;BME280;57136;51.986;4.468;2022-09-16T10:10:51;101334.16;;;16.54;88.64
69528;BME280;57136;51.986;4.468;2022-09-16T10:13:17;101335.78;;;16.63;86.93
69528;BME280;57136;51.986;4.468;2022-09-16T10:15:44;101327.47;;;16.27;86.94
69528;BME280;57136;51.986;4.468;2022-09-16T10:23:26;101340.72;;;15.13;94.17
69528;BME280;57136;51.986;4.468;2022-09-16T10:26:05;101342.75;;;14.43;91.12
69528;BME280;57136;51.986;4.468;2022-09-16T10:28:31;101333.25;;;14.09;90.71
69528;BME280;57136;51.986;4.468;2022-09-16T10:30:58;101330.66;;;13.98;91.82
69528;BME280;57136;51.986;4.468;2022-09-16T10:33:32;101322.81;;;13.98;93.14
69528;BME280;57136;51.986;4.468;2022-09-16T10:36:01;101328.91;;;13.99;95.45
69528;BME280;57136;51.986;4.468;2022-09-16T10:38:40;101327.13;;;14.18;95.63
69528;BME280;57136;51.986;4.468;2022-09-16T10:41:18;101327.03;;;14.46;94.99
69528;BME280;57136;51.986;4.468;2022-09-16T10:44:14;101319.00;;;14.88;92.89
69528;BME280;57136;51.986;4.468;2022-09-16T10:47:04;101324.88;;;15.22;93.28
69528;BME280;57136;51.986;4.468;2022-09-16T10:49:38;101326.16;;;15.82;92.26
69528;BME280;57136;51.986;4.468;2022-09-16T10:52:28;101321.09;;;16.45;89.50
69528;BME280;57136;51.986;4.468;2022-09-16T10:54:55;101320.25;;;17.12;84.45
69528;BME280;57136;51.986;4.468;2022-09-16T10:57:25;101322.47;;;17.38;75.78
69528;BME280;57136;51.986;4.468;2022-09-16T11:08:37;101342.09;;;17.73;69.29
69528;BME280;57136;51.986;4.468;2022-09-16T11:11:22;101339.13;;;17.92;67.78
69528;BME280;57136;51.986;4.468;2022-09-16T11:17:07;101348.59;;;18.04;61.15
69528;BME280;57136;51.986;4.468;2022-09-16T11:22:51;101337.09;;;17.56;66.28
69528;BME280;57136;51.986;4.468;2022-09-16T11:25:40;101338.28;;;17.38;68.55
69528;BME280;57136;51.986;4.468;2022-09-16T11:31:26;101342.09;;;17.72;64.75
69528;BME280;57136;51.986;4.468;2022-09-16T11:44:48;101341.59;;;15.12;83.21
69528;BME280;57136;51.986;4.468;2022-09-16T11:50:29;101339.44;;;15.65;82.77
69528;BME280;57136;51.986;4.468;2022-09-16T11:56:28;101356.34;;;15.32;77.83
69528;BME280;57136;51.986;4.468;2022-09-16T12:01:48;101359.84;;;15.32;77.04
69528;BME280;57136;51.986;4.468;2022-09-16T12:04:30;101353.72;;;15.32;78.05
69528;BME280;57136;51.986;4.468;2022-09-16T12:09:35;101361.22;;;15.86;82.50
69528;BME280;57136;51.986;4.468;2022-09-16T12:12:24;101363.50;;;16.18;75.54
69528;BME280;57136;51.986;4.468;2022-09-16T12:15:02;101361.25;;;16.62;71.49
69528;BME280;57136;51.986;4.468;2022-09-16T12:17:36;101364.56;;;16.77;66.00
69528;BME280;57136;51.986;4.468;2022-09-16T12:20:16;101372.38;;;16.85;63.63
69528;BME280;57136;51.986;4.468;2022-09-16T12:22:56;101370.13;;;17.22;63.46
69528;BME280;57136;51.986;4.468;2022-09-16T12:30:35;101369.34;;;17.71;61.43
69528;BME280;57136;51.986;4.468;2022-09-16T12:33:25;101394.00;;;17.12;60.11
69528;BME280;57136;51.986;4.468;2022-09-16T12:36:06;101385.97;;;16.51;65.14
69528;BME280;57136;51.986;4.468;2022-09-16T12:38:32;101405.00;;;15.81;67.25
69528;BME280;57136;51.986;4.468;2022-09-16T12:41:11;101404.81;;;16.04;72.36
69528;BME280;57136;51.986;4.468;2022-09-16T12:47:11;101413.34;;;15.09;75.67
69528;BME280;57136;51.986;4.468;2022-09-16T12:55:42;101422.38;;;13.90;84.58
69528;BME280;57136;51.986;4.468;2022-09-16T13:01:34;101389.97;;;13.28;90.19
69528;BME280;57136;51.986;4.468;2022-09-16T13:04:13;101393.34;;;12.91;93.82
69528;BME280;57136;51.986;4.468;2022-09-16T13:06:49;101397.72;;;12.87;93.65
69528;BME280;57136;51.986;4.468;2022-09-16T13:09:28;101394.13;;;12.70;93.93
69528;BME280;57136;51.986;4.468;2022-09-16T13:12:02;101388.91;;;12.65;94.47
69528;BME280;57136;51.986;4.468;2022-09-16T13:14:59;101372.34;;;12.69;94.29
69528;BME280;57136;51.986;4.468;2022-09-16T13:20:02;101370.78;;;13.26;94.86
69528;BME280;57136;51.986;4.468;2022-09-16T13:22:35;101382.19;;;13.54;95.20
69528;BME280;57136;51.986;4.468;2022-09-16T13:25:17;101406.63;;;13.58;93.25
69528;BME280;57136;51.986;4.468;2022-09-16T13:28:02;101419.66;;;13.36;92.29
69528;BME280;57136;51.986;4.468;2022-09-16T13:30:35;101390.81;;;13.13;92.82
69528;BME280;57136;51.986;4.468;2022-09-16T13:33:20;101386.41;;;12.98;92.37
69528;BME280;57136;51.986;4.468;2022-09-16T13:35:49;101385.53;;;12.96;93.15
69528;BME280;57136;51.986;4.468;2022-09-16T13:40:56;101381.25;;;13.21;95.86
69528;BME280;57136;51.986;4.468;2022-09-16T13:43:29;101376.91;;;13.32;97.29
69528;BME280;57136;51.986;4.468;2022-09-16T13:46:36;101366.47;;;13.51;97.17
69528;BME280;57136;51.986;4.468;2022-09-16T13:51:27;101356.00;;;13.53;96.35
69528;BME280;57136;51.986;4.468;2022-09-16T13:53:54;101358.63;;;13.71;97.57
69528;BME280;57136;51.986;4.468;2022-09-16T13:59:33;101352.47;;;13.99;94.63
69528;BME280;57136;51.986;4.468;2022-09-16T14:05:14;101355.94;;;14.21;95.65
69528;BME280;57136;51.986;4.468;2022-09-16T14:11:00;101356.88;;;13.90;96.01
69528;BME280;57136;51.986;4.468;2022-09-16T14:13:45;101355.09;;;13.99;95.65
69528;BME280;57136;51.986;4.468;2022-09-16T14:16:16;101362.97;;;13.97;95.15
69528;BME280;57136;51.986;4.468;2022-09-16T14:18:54;101362.09;;;13.92;96.41
69528;BME280;57136;51.986;4.468;2022-09-16T14:21:22;101369.09;;;13.90;96.04
69528;BME280;57136;51.986;4.468;2022-09-16T14:23:48;101372.59;;;13.92;95.89
69528;BME280;57136;51.986;4.468;2022-09-16T14:26:22;101370.00;;;13.93;96.02
69528;BME280;57136;51.986;4.468;2022-09-16T14:28:48;101369.09;;;14.05;94.17
69528;BME280;57136;51.986;4.468;2022-09-16T14:31:19;101365.59;;;14.11;93.24
69528;BME280;57136;51.986;4.468;2022-09-16T14:33:58;101369.91;;;14.32;92.64
69528;BME280;57136;51.986;4.468;2022-09-16T14:36:37;101359.34;;;14.51;92.73
69528;BME280;57136;51.986;4.468;2022-09-16T14:41:36;101357.25;;;15.29;82.75
69528;BME280;57136;51.986;4.468;2022-09-16T14:44:09;101352.09;;;15.12;82.27
69528;BME280;57136;51.986;4.468;2022-09-16T14:46:45;101352.94;;;15.16;79.41
69528;BME280;57136;51.986;4.468;2022-09-16T14:49:13;101344.13;;;15.24;80.85
69528;BME280;57136;51.986;4.468;2022-09-16T14:51:47;101343.00;;;15.61;81.56
69528;BME280;57136;51.986;4.468;2022-09-16T14:54:18;101341.22;;;15.62;75.68
69528;BME280;57136;51.986;4.468;2022-09-16T14:57:01;101357.72;;;15.78;71.62
69528;BME280;57136;51.986;4.468;2022-09-16T14:59:30;101345.56;;;15.66;72.37
69528;BME280;57136;51.986;4.468;2022-09-16T15:02:03;101350.91;;;15.53;74.14
69528;BME280;57136;51.986;4.468;2022-09-16T15:04:34;101344.06;;;15.34;73.45
69528;BME280;57136;51.986;4.468;2022-09-16T15:07:07;101351.13;;;15.30;74.24
69528;BME280;57136;51.986;4.468;2022-09-16T15:12:22;101340.88;;;16.03;72.02
69528;BME280;57136;51.986;4.468;2022-09-16T15:14:49;101343.22;;;16.30;70.44
69528;BME280;57136;51.986;4.468;2022-09-16T15:17:17;101346.69;;;16.33;68.99
69528;BME280;57136;51.986;4.468;2022-09-16T15:19:51;101336.03;;;16.44;70.55
69528;BME280;57136;51.986;4.468;2022-09-16T15:22:18;101332.59;;;16.39;69.39
69528;BME280;57136;51.986;4.468;2022-09-16T15:24:46;101350.34;;;16.18;69.99
69528;BME280;57136;51.986;4.468;2022-09-16T15:27:19;101338.16;;;16.13;71.21
69528;BME280;57136;51.986;4.468;2022-09-16T15:29:47;101336.63;;;15.92;72.87
69528;BME280;57136;51.986;4.468;2022-09-16T15:32:19;101341.19;;;15.63;70.65
69528;BME280;57136;51.986;4.468;2022-09-16T15:34:46;101331.47;;;15.78;72.25
69528;BME280;57136;51.986;4.468;2022-09-16T15:37:33;101343.53;;;16.00;73.09
69528;BME280;57136;51.986;4.468;2022-09-16T15:43:14;101342.81;;;15.78;70.57